Time;durP1;ratioP1;P1;durP2;ratioP2;P2;SDS_P1;SDS_P2;PMS_P1;PMS_P2;Temp;Humidity;BMP_temperature;BMP_pressure;BME280_temperature;BME280_humidity;BME280_pressure;Samples;Min_cycle;Max_cycle;Signal;HPM_P1;HPM_P2
2023/01/06 00:00:50;;;;;;;11.43;6.80;;;11.70;99.90;;;;;;5084018;28;22159;-73
2023/01/06 00:03:19;;;;;;;9.03;6.13;;;11.70;99.90;;;;;;5078006;28;20469;-74
2023/01/06 00:05:45;;;;;;;9.07;6.10;;;11.50;99.90;;;;;;5083740;28;20550;-73
2023/01/06 00:08:12;;;;;;;11.47;5.87;;;11.60;99.90;;;;;;5086650;28;20480;-73
2023/01/06 00:10:39;;;;;;;8.87;4.80;;;11.60;99.90;;;;;;5086729;28;20462;-74
2023/01/06 00:13:06;;;;;;;8.90;4.53;;;11.60;99.90;;;;;;5081282;28;20455;-73
2023/01/06 00:15:33;;;;;;;10.87;4.90;;;11.50;99.90;;;;;;5082364;28;20501;-73
2023/01/06 00:18:00;;;;;;;8.43;4.20;;;11.60;99.90;;;;;;5085023;28;20481;-73
2023/01/06 00:20:28;;;;;;;8.40;5.10;;;11.60;99.90;;;;;;5089869;28;20881;-73
2023/01/06 00:22:55;;;;;;;6.93;4.30;;;11.60;99.90;;;;;;5084226;28;20496;-73
2023/01/06 00:25:23;;;;;;;10.23;3.87;;;11.60;99.90;;;;;;5089621;28;20933;-72
2023/01/06 00:27:50;;;;;;;6.10;3.83;;;11.60;99.90;;;;;;5085179;28;20483;-74
2023/01/06 00:30:17;;;;;;;6.23;3.80;;;11.60;99.90;;;;;;5087578;28;20533;-73
2023/01/06 00:32:44;;;;;;;7.50;4.33;;;11.60;99.90;;;;;;5088959;28;20471;-74
2023/01/06 00:35:11;;;;;;;4.40;2.00;;;11.70;99.90;;;;;;5083453;28;20434;-74
2023/01/06 00:37:40;;;;;;;2.10;1.50;;;11.60;99.90;;;;;;5089218;28;20489;-74
2023/01/06 00:40:08;;;;;;;2.80;2.23;;;11.50;99.90;;;;;;5084265;28;20455;-74
2023/01/06 00:42:35;;;;;;;3.40;2.40;;;11.60;99.90;;;;;;5087590;28;20801;-74
2023/01/06 00:45:02;;;;;;;6.73;1.90;;;11.60;99.90;;;;;;5091460;28;20450;-72
2023/01/06 00:47:29;;;;;;;4.50;2.60;;;11.60;99.90;;;;;;5087633;28;20570;-73
2023/01/06 00:49:56;;;;;;;2.90;2.20;;;11.60;99.90;;;;;;5090510;28;20565;-74
2023/01/06 00:52:23;;;;;;;2.50;2.00;;;11.50;99.90;;;;;;5085495;28;20459;-73
2023/01/06 00:54:51;;;;;;;4.80;2.80;;;11.50;99.90;;;;;;5089348;28;20517;-73
2023/01/06 00:57:18;;;;;;;1.90;1.70;;;11.50;99.90;;;;;;5086363;28;20450;-73
2023/01/06 00:59:45;;;;;;;2.43;2.00;;;11.50;99.90;;;;;;5089060;28;20499;-73
2023/01/06 01:02:12;;;;;;;1.47;1.17;;;11.50;99.90;;;;;;5088912;28;20486;-73
2023/01/06 01:04:39;;;;;;;2.40;1.90;;;11.50;99.90;;;;;;5092422;28;20463;-74
2023/01/06 01:07:06;;;;;;;2.60;2.13;;;11.50;99.90;;;;;;5091821;28;20535;-73
2023/01/06 01:09:33;;;;;;;2.73;1.37;;;11.50;99.90;;;;;;5095200;28;20451;-73
2023/01/06 01:12:11;;;;;;;4.40;3.53;;;11.50;99.90;;;;;;5089077;28;20489;-73
2023/01/06 01:14:40;;;;;;;3.30;1.83;;;11.40;99.90;;;;;;5090966;28;20490;-74
2023/01/06 01:17:08;;;;;;;5.43;1.70;;;11.50;99.90;;;;;;5088216;28;20475;-73
2023/01/06 01:19:35;;;;;;;1.27;1.10;;;11.50;99.90;;;;;;5095676;28;20488;-73
2023/01/06 01:22:03;;;;;;;3.40;1.80;;;11.50;99.90;;;;;;5101814;28;20510;-73
2023/01/06 01:24:30;;;;;;;2.93;1.63;;;11.50;99.90;;;;;;5088693;28;20500;-73
2023/01/06 01:26:57;;;;;;;1.70;1.07;;;11.50;99.90;;;;;;5090455;28;20465;-73
2023/01/06 01:29:26;;;;;;;2.80;1.30;;;11.50;99.90;;;;;;5094892;28;20422;-73
2023/01/06 01:31:54;;;;;;;6.10;2.13;;;11.50;99.90;;;;;;5089406;28;20505;-73
2023/01/06 01:34:21;;;;;;;4.60;1.20;;;11.50;99.90;;;;;;5087769;28;20529;-73
2023/01/06 01:36:52;;;;;;;4.27;2.03;;;11.50;99.90;;;;;;5087515;28;20460;-73
2023/01/06 01:39:21;;;;;;;1.40;1.20;;;11.50;99.90;;;;;;5088636;28;20484;-74
2023/01/06 01:41:48;;;;;;;2.80;1.30;;;11.50;99.90;;;;;;5076971;28;20444;-74
2023/01/06 01:44:53;;;;;;;5.10;1.40;;;11.40;99.90;;;;;;5087518;28;20542;-73
2023/01/06 01:47:26;;;;;;;1.57;1.30;;;11.40;99.90;;;;;;5093042;28;20474;-74
2023/01/06 01:49:56;;;;;;;1.53;1.10;;;11.40;99.90;;;;;;5092317;28;20479;-74
2023/01/06 01:52:23;;;;;;;1.07;0.80;;;11.50;99.90;;;;;;5091482;28;20539;-73
2023/01/06 01:54:51;;;;;;;2.87;1.00;;;11.50;99.90;;;;;;5090940;28;20458;-74
2023/01/06 01:57:23;;;;;;;2.37;1.27;;;11.50;99.90;;;;;;5035141;28;20549;-73
2023/01/06 01:59:51;;;;;;;18.70;2.60;;;11.50;99.90;;;;;;5089787;28;20461;-73
2023/01/06 02:02:19;;;;;;;1.63;1.10;;;11.60;99.90;;;;;;5091585;28;20446;-74
2023/01/06 02:04:51;;;;;;;1.40;1.20;;;11.50;99.90;;;;;;5091026;28;21018;-74
2023/01/06 02:07:18;;;;;;;3.80;1.17;;;11.50;99.90;;;;;;5089022;28;20480;-74
2023/01/06 02:09:53;;;;;;;2.20;1.33;;;11.50;99.90;;;;;;5055864;28;20470;-73
2023/01/06 02:12:19;;;;;;;2.37;1.27;;;11.40;99.90;;;;;;5086280;28;20549;-73
2023/01/06 02:14:46;;;;;;;2.57;0.90;;;11.50;99.90;;;;;;5087734;28;20849;-73
2023/01/06 02:17:38;;;;;;;1.30;0.77;;;11.50;99.90;;;;;;5081426;28;20468;-73
2023/01/06 02:20:34;;;;;;;1.10;1.00;;;11.50;99.90;;;;;;5093771;28;20452;-74
2023/01/06 02:23:27;;;;;;;1.80;1.30;;;11.50;99.90;;;;;;5085954;28;21055;-73
2023/01/06 02:26:32;;;;;;;2.37;1.07;;;11.50;99.90;;;;;;5083579;28;20544;-73
2023/01/06 02:29:32;;;;;;;1.53;1.43;;;11.50;99.90;;;;;;5082677;28;20855;-73
2023/01/06 02:32:05;;;;;;;1.50;1.03;;;11.60;99.90;;;;;;5081912;28;20483;-74
2023/01/06 02:34:42;;;;;;;1.40;1.10;;;11.60;99.90;;;;;;5085948;28;20811;-74
2023/01/06 02:37:20;;;;;;;1.37;1.07;;;11.50;99.90;;;;;;5087408;28;20454;-74
2023/01/06 02:40:01;;;;;;;2.33;1.00;;;11.60;99.90;;;;;;5082436;28;20455;-73
2023/01/06 02:42:39;;;;;;;7.73;1.40;;;11.60;99.90;;;;;;5088042;28;20522;-73
2023/01/06 02:45:18;;;;;;;2.30;1.30;;;11.70;99.90;;;;;;5088299;28;20457;-73
2023/01/06 02:47:56;;;;;;;1.73;1.20;;;11.70;99.90;;;;;;5077960;28;20476;-74
2023/01/06 02:50:29;;;;;;;1.00;0.90;;;11.60;99.90;;;;;;5086872;28;20425;-74
2023/01/06 02:53:06;;;;;;;1.50;1.10;;;11.60;99.90;;;;;;5090062;28;20641;-74
2023/01/06 02:55:37;;;;;;;2.73;1.00;;;11.60;99.90;;;;;;5082694;28;20433;-74
2023/01/06 02:58:11;;;;;;;1.47;1.00;;;11.60;99.90;;;;;;5092590;28;20439;-73
2023/01/06 03:00:42;;;;;;;1.73;1.13;;;11.60;99.90;;;;;;5093081;28;20444;-74
2023/01/06 03:03:16;;;;;;;1.00;0.70;;;11.60;99.90;;;;;;5090501;28;21053;-74
2023/01/06 03:05:45;;;;;;;3.00;1.50;;;11.60;99.90;;;;;;5085486;28;20530;-74
2023/01/06 03:08:16;;;;;;;1.20;1.00;;;11.60;99.90;;;;;;5086147;28;20823;-73
2023/01/06 03:10:45;;;;;;;3.07;1.27;;;11.60;99.90;;;;;;5082893;28;20488;-74
2023/01/06 03:13:19;;;;;;;2.33;1.57;;;11.50;99.90;;;;;;5084057;28;20906;-73
2023/01/06 03:15:46;;;;;;;4.50;1.57;;;11.60;99.90;;;;;;5082772;28;20425;-73
2023/01/06 03:18:15;;;;;;;1.30;1.20;;;11.60;99.90;;;;;;5068890;28;20557;-73
2023/01/06 03:20:42;;;;;;;1.10;0.90;;;11.50;99.90;;;;;;5091708;28;20444;-73
2023/01/06 03:23:09;;;;;;;2.00;1.30;;;11.50;99.90;;;;;;5085521;28;20544;-73
2023/01/06 03:25:38;;;;;;;1.50;0.80;;;11.50;99.90;;;;;;5083627;28;20463;-73
2023/01/06 03:28:05;;;;;;;3.53;1.40;;;11.50;99.90;;;;;;5081811;28;21116;-73
2023/01/06 03:30:42;;;;;;;3.00;1.00;;;11.50;99.90;;;;;;5089934;28;20932;-73
2023/01/06 03:33:15;;;;;;;6.30;1.47;;;11.50;99.90;;;;;;5079604;28;20463;-74
2023/01/06 03:35:53;;;;;;;3.63;2.03;;;11.50;99.90;;;;;;5082523;28;20485;-73
2023/01/06 03:38:30;;;;;;;1.87;1.33;;;11.50;99.90;;;;;;5086120;28;20581;-73
2023/01/06 03:41:05;;;;;;;1.70;1.03;;;11.50;99.90;;;;;;5081603;28;20420;-74
2023/01/06 03:43:37;;;;;;;5.33;1.00;;;11.60;99.90;;;;;;5084943;28;20465;-74
2023/01/06 03:46:18;;;;;;;1.60;1.30;;;11.60;99.90;;;;;;5084499;28;20948;-74
2023/01/06 03:48:55;;;;;;;1.63;1.20;;;11.60;99.90;;;;;;5080370;28;20484;-74
2023/01/06 03:51:35;;;;;;;1.23;0.90;;;11.60;99.90;;;;;;5080943;28;20525;-74
2023/01/06 03:54:08;;;;;;;1.00;0.87;;;11.60;99.90;;;;;;5081753;28;20433;-74
2023/01/06 03:56:39;;;;;;;4.50;2.00;;;11.60;99.90;;;;;;5080826;28;20463;-74
2023/01/06 03:59:14;;;;;;;1.20;1.10;;;11.50;99.90;;;;;;5082682;28;20535;-73
2023/01/06 04:01:42;;;;;;;6.13;1.13;;;11.50;99.90;;;;;;5083950;28;20942;-74
2023/01/06 04:04:10;;;;;;;1.60;1.50;;;11.60;99.90;;;;;;5085362;28;20487;-74
2023/01/06 04:06:38;;;;;;;6.53;1.57;;;11.60;99.90;;;;;;5083944;28;21020;-73
2023/01/06 04:09:05;;;;;;;1.70;1.60;;;11.60;99.90;;;;;;5081920;28;20647;-73
2023/01/06 04:14:13;;;;;;;2.93;1.27;;;11.60;99.90;;;;;;5065073;28;20453;-73
2023/01/06 04:16:40;;;;;;;1.33;1.03;;;11.70;99.90;;;;;;5085825;28;20463;-73
2023/01/06 04:19:07;;;;;;;1.30;0.90;;;11.70;99.90;;;;;;5099492;28;20509;-73
2023/01/06 04:21:34;;;;;;;1.83;1.20;;;11.60;99.90;;;;;;5081102;28;21219;-73
2023/01/06 04:24:02;;;;;;;2.60;2.37;;;11.60;99.90;;;;;;5083362;28;20460;-73
2023/01/06 04:26:29;;;;;;;1.20;0.80;;;11.60;99.90;;;;;;5079878;28;20465;-72
2023/01/06 04:28:56;;;;;;;6.93;1.00;;;11.70;99.90;;;;;;5083357;28;20479;-72
2023/01/06 04:31:23;;;;;;;1.10;0.70;;;11.70;99.90;;;;;;5082460;28;21019;-73
2023/01/06 04:33:49;;;;;;;5.27;1.07;;;11.70;99.90;;;;;;5082054;28;20990;-73
2023/01/06 04:36:19;;;;;;;1.00;0.80;;;11.70;99.90;;;;;;5078880;28;20487;-73
2023/01/06 04:38:46;;;;;;;4.37;0.93;;;11.70;99.90;;;;;;5081935;28;20515;-72
2023/01/06 04:41:14;;;;;;;1.00;0.90;;;11.70;99.90;;;;;;5084079;28;20543;-72
2023/01/06 04:43:41;;;;;;;2.70;0.90;;;11.70;99.90;;;;;;5080528;28;20445;-73
2023/01/06 04:46:08;;;;;;;4.30;1.40;;;11.60;99.90;;;;;;5083527;28;20451;-73
2023/01/06 04:48:35;;;;;;;1.20;0.83;;;11.60;99.90;;;;;;5087291;28;20465;-73
2023/01/06 04:51:02;;;;;;;3.00;0.90;;;11.60;99.90;;;;;;5085638;28;20470;-72
2023/01/06 04:53:29;;;;;;;1.57;1.17;;;11.60;99.90;;;;;;5084462;28;20546;-73
2023/01/06 04:56:01;;;;;;;4.73;1.00;;;11.60;99.90;;;;;;5088609;28;20836;-72
2023/01/06 04:58:29;;;;;;;4.20;1.00;;;11.60;99.90;;;;;;5092629;28;20445;-73
2023/01/06 05:01:01;;;;;;;1.57;1.00;;;11.60;99.90;;;;;;5092840;28;20525;-74
2023/01/06 05:03:28;;;;;;;3.33;1.30;;;11.50;99.90;;;;;;5086906;28;20583;-73
2023/01/06 05:05:55;;;;;;;1.00;0.80;;;11.50;99.90;;;;;;5085550;28;20435;-72
2023/01/06 05:08:22;;;;;;;1.40;0.80;;;11.60;99.90;;;;;;5086618;28;20527;-72
2023/01/06 05:10:49;;;;;;;1.10;0.70;;;11.50;99.90;;;;;;5085248;28;20461;-72
2023/01/06 05:13:19;;;;;;;3.50;1.03;;;11.50;99.90;;;;;;5080043;28;20486;-73
2023/01/06 05:15:47;;;;;;;1.33;0.93;;;11.50;99.90;;;;;;5084941;28;20476;-72
2023/01/06 05:18:14;;;;;;;1.40;1.10;;;11.50;99.90;;;;;;5090231;28;20529;-72
2023/01/06 05:20:43;;;;;;;2.17;1.00;;;11.60;99.90;;;;;;5089640;28;21079;-73
2023/01/06 05:23:10;;;;;;;3.40;1.47;;;11.60;99.90;;;;;;5083166;28;21054;-73
2023/01/06 05:25:37;;;;;;;2.63;1.77;;;11.60;99.90;;;;;;5076999;28;20913;-73
2023/01/06 05:28:04;;;;;;;1.57;1.23;;;11.70;99.90;;;;;;5079562;28;20566;-72
2023/01/06 05:30:31;;;;;;;1.10;0.80;;;11.70;99.90;;;;;;5079479;28;20469;-72
2023/01/06 05:32:59;;;;;;;5.83;1.87;;;11.60;99.90;;;;;;5080413;28;20471;-72
2023/01/06 05:35:26;;;;;;;2.60;1.00;;;11.60;99.90;;;;;;5081959;28;20499;-72
2023/01/06 05:37:54;;;;;;;1.90;1.37;;;11.60;99.90;;;;;;5084908;28;20487;-75
2023/01/06 05:40:21;;;;;;;1.00;0.80;;;11.70;99.90;;;;;;5085808;28;20453;-72
2023/01/06 05:42:48;;;;;;;1.00;0.80;;;11.60;99.90;;;;;;5079187;28;20447;-72
2023/01/06 05:45:16;;;;;;;7.80;1.27;;;11.60;99.90;;;;;;5084699;28;20453;-72
2023/01/06 05:47:42;;;;;;;1.27;0.87;;;11.60;99.90;;;;;;5078604;28;20483;-72
2023/01/06 05:50:11;;;;;;;1.40;1.10;;;11.50;99.90;;;;;;5088950;28;20455;-72
2023/01/06 05:52:38;;;;;;;1.67;1.37;;;11.50;99.90;;;;;;5083759;28;20506;-73
2023/01/06 05:55:06;;;;;;;3.43;0.93;;;11.50;99.90;;;;;;5084725;28;20541;-73
2023/01/06 05:57:33;;;;;;;1.40;0.83;;;11.60;99.90;;;;;;5084205;28;20496;-73
2023/01/06 06:00:00;;;;;;;1.20;1.00;;;11.60;99.90;;;;;;5082227;28;20459;-72
2023/01/06 06:02:27;;;;;;;0.93;0.70;;;11.60;99.90;;;;;;5081037;28;20423;-72
2023/01/06 06:04:54;;;;;;;1.10;0.90;;;11.50;99.90;;;;;;5087301;28;20464;-72
2023/01/06 06:07:22;;;;;;;4.70;1.10;;;11.50;99.90;;;;;;5084650;28;20479;-74
2023/01/06 06:09:49;;;;;;;1.43;0.90;;;11.60;99.90;;;;;;5082232;28;20980;-72
2023/01/06 06:12:16;;;;;;;1.53;1.00;;;11.60;99.90;;;;;;5084346;28;20460;-73
2023/01/06 06:14:43;;;;;;;3.03;0.80;;;11.60;99.90;;;;;;5083695;28;20484;-72
2023/01/06 06:17:10;;;;;;;1.50;0.80;;;11.60;99.90;;;;;;5097319;28;20452;-73
2023/01/06 06:19:37;;;;;;;1.67;0.90;;;11.60;99.90;;;;;;5078534;28;20463;-72
2023/01/06 06:22:04;;;;;;;1.10;0.90;;;11.50;99.90;;;;;;5082692;28;20452;-73
2023/01/06 06:24:33;;;;;;;1.33;1.10;;;11.60;99.90;;;;;;5081209;28;20518;-72
2023/01/06 06:27:00;;;;;;;1.50;1.40;;;11.60;99.90;;;;;;5078812;28;20456;-72
2023/01/06 06:29:27;;;;;;;1.13;0.80;;;11.50;99.90;;;;;;5088363;28;20435;-73
2023/01/06 06:31:55;;;;;;;1.10;0.90;;;11.50;99.90;;;;;;5087305;28;20545;-74
2023/01/06 06:34:22;;;;;;;1.10;0.77;;;11.50;99.90;;;;;;5084761;28;20458;-74
2023/01/06 06:36:49;;;;;;;2.60;1.00;;;11.50;99.90;;;;;;5088389;28;20483;-73
2023/01/06 06:39:16;;;;;;;3.23;1.10;;;11.50;99.90;;;;;;5090608;28;20498;-73
2023/01/06 06:41:45;;;;;;;1.20;0.80;;;11.50;99.90;;;;;;5085480;28;21026;-73
2023/01/06 06:44:11;;;;;;;1.20;1.07;;;11.60;99.90;;;;;;5088458;28;20471;-73
2023/01/06 06:46:39;;;;;;;1.00;0.80;;;11.50;99.90;;;;;;5085826;28;20467;-72
2023/01/06 06:49:06;;;;;;;1.97;1.43;;;11.50;99.90;;;;;;5085986;28;21074;-73
2023/01/06 06:51:33;;;;;;;1.00;0.80;;;11.50;99.90;;;;;;5085711;28;20538;-73
2023/01/06 06:54:00;;;;;;;2.27;1.57;;;11.40;99.90;;;;;;5093824;28;20462;-73
2023/01/06 06:56:27;;;;;;;1.30;0.90;;;11.40;99.90;;;;;;5093165;28;20486;-73
2023/01/06 06:58:55;;;;;;;1.30;1.03;;;11.50;99.90;;;;;;5097472;28;20457;-74
2023/01/06 07:01:22;;;;;;;1.30;1.10;;;11.50;99.90;;;;;;5087692;28;20440;-74
2023/01/06 07:03:50;;;;;;;1.47;1.37;;;11.50;99.90;;;;;;5090475;28;20812;-73
2023/01/06 07:06:19;;;;;;;1.10;0.80;;;11.50;99.90;;;;;;5085029;28;20520;-74
2023/01/06 07:08:47;;;;;;;1.77;1.53;;;11.50;99.90;;;;;;5086766;28;20620;-72
2023/01/06 07:11:15;;;;;;;1.23;1.13;;;11.50;99.90;;;;;;5087219;28;20452;-74
2023/01/06 07:13:42;;;;;;;3.53;1.20;;;11.50;99.90;;;;;;5097095;28;20488;-73
2023/01/06 07:16:11;;;;;;;1.70;1.33;;;11.40;99.90;;;;;;5096343;28;20433;-72
2023/01/06 07:18:39;;;;;;;3.67;1.10;;;11.40;99.90;;;;;;5087655;28;20567;-72
2023/01/06 07:21:06;;;;;;;1.80;1.30;;;11.40;99.90;;;;;;5063987;28;20796;-74
2023/01/06 07:23:35;;;;;;;1.60;1.00;;;11.40;99.90;;;;;;5082940;28;20861;-74
2023/01/06 07:26:04;;;;;;;2.40;0.77;;;11.50;99.90;;;;;;5083718;28;20831;-73
2023/01/06 07:28:32;;;;;;;1.93;1.10;;;11.50;99.90;;;;;;5083625;28;20531;-73
2023/01/06 07:30:59;;;;;;;1.00;0.80;;;11.50;99.90;;;;;;5079127;28;20612;-72
2023/01/06 07:33:28;;;;;;;3.47;1.53;;;11.60;99.90;;;;;;5079953;28;20999;-73
2023/01/06 07:35:57;;;;;;;1.47;0.90;;;11.50;99.90;;;;;;5081811;28;20462;-72
2023/01/06 07:38:24;;;;;;;0.90;0.70;;;11.50;99.90;;;;;;5082742;28;20453;-73
2023/01/06 07:40:51;;;;;;;1.00;0.70;;;11.50;99.90;;;;;;5081060;28;20452;-73
2023/01/06 07:43:19;;;;;;;1.20;0.90;;;11.40;99.90;;;;;;5079182;28;20458;-73
2023/01/06 07:45:46;;;;;;;0.90;0.73;;;11.40;99.90;;;;;;5081647;28;20488;-74
2023/01/06 07:48:13;;;;;;;1.17;1.07;;;11.40;99.90;;;;;;5076516;28;20473;-73
2023/01/06 07:50:41;;;;;;;1.57;0.90;;;11.50;99.90;;;;;;5081004;28;20487;-73
2023/01/06 07:53:09;;;;;;;1.13;0.80;;;11.50;99.90;;;;;;5085157;28;20451;-73
2023/01/06 07:55:37;;;;;;;1.10;1.00;;;11.60;99.90;;;;;;5075602;28;20556;-73
2023/01/06 07:58:05;;;;;;;1.30;1.00;;;11.60;99.90;;;;;;5081148;28;21030;-73
2023/01/06 08:00:32;;;;;;;1.87;1.63;;;11.50;99.90;;;;;;5083487;28;20472;-73
2023/01/06 08:03:02;;;;;;;1.10;1.00;;;11.50;99.90;;;;;;5081141;28;20550;-73
2023/01/06 08:05:29;;;;;;;2.07;0.80;;;11.60;99.90;;;;;;5078803;28;20570;-73
2023/01/06 08:07:58;;;;;;;2.83;1.23;;;11.60;99.90;;;;;;5058811;28;20467;-73
2023/01/06 08:10:25;;;;;;;1.50;0.90;;;11.60;99.90;;;;;;5083177;28;20459;-73
2023/01/06 08:12:53;;;;;;;1.20;1.00;;;11.60;99.90;;;;;;5096417;28;20490;-73
2023/01/06 08:15:20;;;;;;;1.07;0.90;;;11.60;99.90;;;;;;5096136;28;20983;-73
2023/01/06 08:17:47;;;;;;;1.20;0.93;;;11.60;99.90;;;;;;5089622;28;20602;-73
2023/01/06 08:20:14;;;;;;;1.23;0.80;;;11.70;99.90;;;;;;5089059;28;20542;-74
2023/01/06 08:22:41;;;;;;;1.20;1.10;;;11.70;99.90;;;;;;5086788;28;20566;-72
2023/01/06 08:25:10;;;;;;;1.47;0.80;;;11.70;99.90;;;;;;5088528;28;20846;-73
2023/01/06 08:27:37;;;;;;;0.90;0.63;;;11.60;99.90;;;;;;5077686;28;20481;-73
2023/01/06 08:30:05;;;;;;;1.50;1.17;;;11.70;99.90;;;;;;5085573;28;20435;-73
2023/01/06 08:32:32;;;;;;;1.00;0.80;;;11.70;99.90;;;;;;5082247;28;20488;-73
2023/01/06 08:35:01;;;;;;;2.23;1.00;;;11.70;99.90;;;;;;5087495;28;20456;-73
2023/01/06 08:37:28;;;;;;;1.10;0.93;;;11.60;99.90;;;;;;5088282;28;20850;-73
2023/01/06 08:39:55;;;;;;;1.10;0.90;;;11.60;99.90;;;;;;5087213;28;20541;-73
2023/01/06 08:42:23;;;;;;;0.90;0.70;;;11.70;99.90;;;;;;5080165;28;20888;-73
2023/01/06 08:44:50;;;;;;;1.00;0.70;;;11.70;99.90;;;;;;5095290;28;20456;-73
2023/01/06 08:47:17;;;;;;;1.10;0.97;;;11.60;99.90;;;;;;5089173;28;20479;-74
2023/01/06 08:49:44;;;;;;;1.50;0.93;;;11.60;99.90;;;;;;5085744;28;20471;-73
2023/01/06 08:52:11;;;;;;;1.60;1.10;;;11.70;99.90;;;;;;5086138;28;20571;-72
2023/01/06 08:54:38;;;;;;;1.10;0.87;;;11.60;99.90;;;;;;5087325;28;20456;-73
2023/01/06 08:57:08;;;;;;;2.53;1.30;;;11.70;99.90;;;;;;5091011;28;20491;-73
2023/01/06 08:59:36;;;;;;;1.10;0.87;;;11.70;99.90;;;;;;5089189;28;20456;-72
2023/01/06 09:02:05;;;;;;;2.40;1.00;;;11.60;99.90;;;;;;5087670;28;20505;-73
2023/01/06 09:04:32;;;;;;;1.00;0.80;;;11.70;99.90;;;;;;5082251;28;20816;-73
2023/01/06 09:06:59;;;;;;;1.57;1.20;;;11.70;99.90;;;;;;5087344;28;20955;-73
2023/01/06 09:09:26;;;;;;;1.40;0.90;;;11.70;99.90;;;;;;5088024;28;20566;-73
2023/01/06 09:11:53;;;;;;;1.10;0.90;;;11.60;99.90;;;;;;5092884;28;20455;-72
2023/01/06 09:14:20;;;;;;;1.40;1.00;;;11.60;99.90;;;;;;5098106;28;20483;-73
2023/01/06 09:16:50;;;;;;;1.10;0.90;;;11.60;99.90;;;;;;5086857;28;20461;-73
2023/01/06 09:19:19;;;;;;;2.73;1.17;;;11.60;99.90;;;;;;5088865;28;20487;-73
2023/01/06 09:21:46;;;;;;;0.90;0.77;;;11.60;99.90;;;;;;5103734;28;20455;-73
2023/01/06 09:24:14;;;;;;;1.63;0.93;;;11.60;99.90;;;;;;5087802;28;20473;-74
2023/01/06 09:26:41;;;;;;;3.00;1.00;;;11.60;99.90;;;;;;5090174;28;20463;-73
2023/01/06 09:29:11;;;;;;;1.00;0.70;;;11.70;99.90;;;;;;5085072;28;20487;-73
2023/01/06 09:31:38;;;;;;;1.63;0.97;;;11.80;99.90;;;;;;5094787;28;20639;-74
2023/01/06 09:34:06;;;;;;;1.10;0.90;;;11.70;99.90;;;;;;5091566;28;20917;-73
2023/01/06 09:36:33;;;;;;;1.00;0.80;;;11.80;99.90;;;;;;5092990;28;20495;-73
2023/01/06 09:39:00;;;;;;;1.53;1.10;;;11.80;99.90;;;;;;5094944;28;21046;-73
2023/01/06 09:41:42;;;;;;;1.30;1.00;;;11.70;99.90;;;;;;5092432;28;20553;-73
2023/01/06 09:44:14;;;;;;;1.30;1.17;;;11.70;99.90;;;;;;5095340;28;20432;-73
2023/01/06 09:46:44;;;;;;;4.30;1.27;;;11.80;99.90;;;;;;5094405;28;20471;-73
2023/01/06 09:49:24;;;;;;;1.10;0.93;;;11.80;99.90;;;;;;5091093;28;20483;-73
2023/01/06 09:51:52;;;;;;;1.43;1.00;;;11.80;99.90;;;;;;5088843;28;20446;-73
2023/01/06 09:54:24;;;;;;;1.73;1.10;;;11.70;99.90;;;;;;5091478;28;20545;-74
2023/01/06 09:56:56;;;;;;;1.33;1.23;;;11.50;99.90;;;;;;5084754;28;20463;-73
2023/01/06 09:59:30;;;;;;;3.47;1.60;;;11.40;99.90;;;;;;5086968;28;20808;-73
2023/01/06 10:01:58;;;;;;;1.07;0.90;;;11.40;99.90;;;;;;5093369;28;20442;-73
2023/01/06 10:04:29;;;;;;;1.60;1.30;;;11.40;99.90;;;;;;5092518;28;20455;-73
2023/01/06 10:07:08;;;;;;;3.40;2.03;;;11.40;99.90;;;;;;5093118;28;20467;-73
2023/01/06 10:09:45;;;;;;;1.93;1.40;;;11.40;99.90;;;;;;5114555;28;20446;-73
2023/01/06 10:12:24;;;;;;;1.40;1.30;;;11.40;99.90;;;;;;5094186;28;20485;-73
2023/01/06 10:15:01;;;;;;;1.30;1.10;;;11.50;99.90;;;;;;5087926;28;20893;-73
2023/01/06 10:17:54;;;;;;;1.47;1.10;;;11.50;99.90;;;;;;5091722;28;20547;-73
2023/01/06 10:20:43;;;;;;;3.33;1.33;;;11.60;99.90;;;;;;5091150;28;20417;-73
2023/01/06 10:23:26;;;;;;;1.93;1.70;;;11.60;99.90;;;;;;5079547;28;20457;-74
2023/01/06 10:25:55;;;;;;;1.50;1.20;;;11.60;99.90;;;;;;5084310;28;20461;-73
2023/01/06 10:28:31;;;;;;;1.40;1.30;;;11.60;99.90;;;;;;5080940;28;21329;-73
2023/01/06 10:31:03;;;;;;;2.50;1.67;;;11.60;99.90;;;;;;5082766;28;20996;-74
2023/01/06 10:33:32;;;;;;;2.13;1.50;;;11.60;99.90;;;;;;5084556;28;20475;-74
2023/01/06 10:36:01;;;;;;;1.57;1.23;;;11.70;99.90;;;;;;5088915;28;20452;-73
2023/01/06 10:38:34;;;;;;;2.23;1.30;;;11.70;99.90;;;;;;5087276;28;20459;-73
2023/01/06 10:41:12;;;;;;;1.40;1.30;;;11.70;99.90;;;;;;5091178;28;20584;-74
2023/01/06 10:43:39;;;;;;;2.60;1.50;;;11.70;99.90;;;;;;5094498;28;20426;-72
2023/01/06 10:46:08;;;;;;;3.00;2.70;;;11.60;99.90;;;;;;5094253;28;21010;-73
2023/01/06 10:48:38;;;;;;;2.57;1.60;;;11.60;99.90;;;;;;5090610;28;20563;-72
2023/01/06 10:51:29;;;;;;;3.20;1.83;;;11.60;99.90;;;;;;5085573;28;20462;-73
2023/01/06 10:53:57;;;;;;;1.90;1.50;;;11.60;99.90;;;;;;5089090;28;20540;-73
2023/01/06 10:56:26;;;;;;;9.87;3.00;;;11.70;99.90;;;;;;5093768;28;20455;-72
2023/01/06 10:58:57;;;;;;;2.17;1.97;;;11.70;99.90;;;;;;5100814;28;20991;-72
2023/01/06 11:01:25;;;;;;;4.13;2.53;;;11.70;99.90;;;;;;5104941;28;20465;-72
2023/01/06 11:04:07;;;;;;;3.73;2.37;;;11.80;99.90;;;;;;5107176;28;20508;-72
2023/01/06 11:06:37;;;;;;;2.07;1.90;;;11.80;99.90;;;;;;5094624;28;20440;-73
2023/01/06 11:09:21;;;;;;;2.33;2.13;;;11.80;99.90;;;;;;5100463;28;20532;-73
2023/01/06 11:11:50;;;;;;;3.53;2.10;;;11.90;99.90;;;;;;5103640;28;20523;-73
2023/01/06 11:14:19;;;;;;;3.40;2.33;;;12.00;99.90;;;;;;5092854;28;20587;-73
2023/01/06 11:16:55;;;;;;;3.60;2.30;;;11.90;99.90;;;;;;5092115;28;20455;-73
2023/01/06 11:19:31;;;;;;;4.93;2.23;;;12.00;99.90;;;;;;5092626;28;20837;-73
2023/01/06 11:22:00;;;;;;;4.47;2.37;;;12.10;99.90;;;;;;5088555;28;20863;-73
2023/01/06 11:24:27;;;;;;;2.67;2.40;;;12.20;99.90;;;;;;5082879;28;20535;-73
2023/01/06 11:26:56;;;;;;;2.87;2.03;;;12.20;99.90;;;;;;5090950;28;20422;-73
2023/01/06 11:29:29;;;;;;;4.00;2.87;;;12.20;99.90;;;;;;5088004;28;20991;-73
2023/01/06 11:31:59;;;;;;;2.80;2.60;;;12.20;99.90;;;;;;5084538;28;20444;-73
2023/01/06 11:34:28;;;;;;;5.70;2.23;;;12.20;99.90;;;;;;5079711;28;21072;-73
2023/01/06 11:36:57;;;;;;;2.07;1.63;;;12.20;99.90;;;;;;5080808;28;20434;-73
2023/01/06 11:39:33;;;;;;;4.27;2.20;;;12.20;99.90;;;;;;5084588;28;20486;-73
2023/01/06 11:42:05;;;;;;;3.77;2.70;;;12.30;99.90;;;;;;5079671;28;20474;-73
2023/01/06 11:44:36;;;;;;;4.10;2.63;;;12.50;99.90;;;;;;5085653;28;20537;-73
2023/01/06 11:47:08;;;;;;;6.17;2.90;;;12.70;99.90;;;;;;5079790;28;20461;-73
2023/01/06 11:49:38;;;;;;;2.50;1.90;;;13.10;99.90;;;;;;5086709;28;20452;-73
2023/01/06 11:52:08;;;;;;;3.20;2.50;;;13.20;99.90;;;;;;5086734;28;20494;-72
2023/01/06 11:54:39;;;;;;;3.17;2.40;;;13.10;99.90;;;;;;5085374;28;20504;-72
2023/01/06 11:57:39;;;;;;;3.10;2.40;;;12.90;99.90;;;;;;5082777;28;21869;-73
2023/01/06 12:00:31;;;;;;;2.37;1.90;;;12.80;99.90;;;;;;5017051;28;20560;-73
2023/01/06 12:03:09;;;;;;;2.80;2.30;;;12.60;99.90;;;;;;5087442;28;20465;-73
2023/01/06 12:05:43;;;;;;;3.00;2.20;;;12.50;99.90;;;;;;5090200;28;20462;-73
2023/01/06 12:08:20;;;;;;;3.50;3.30;;;12.50;99.90;;;;;;5074312;28;20455;-74
2023/01/06 12:10:55;;;;;;;2.90;2.47;;;12.40;99.90;;;;;;5093449;28;20460;-74
2023/01/06 12:13:22;;;;;;;4.27;2.00;;;12.50;99.90;;;;;;5084139;28;20974;-73
2023/01/06 12:15:58;;;;;;;5.30;2.10;;;12.60;99.90;;;;;;5063329;28;20467;-74
2023/01/06 12:18:31;;;;;;;2.90;2.10;;;12.80;99.90;;;;;;5080260;28;20564;-73
2023/01/06 12:21:00;;;;;;;3.40;2.03;;;13.10;99.90;;;;;;5084124;28;20956;-73
2023/01/06 12:23:34;;;;;;;1.97;1.73;;;13.30;99.90;;;;;;5082374;28;20899;-72
2023/01/06 12:26:08;;;;;;;2.90;2.43;;;13.20;99.90;;;;;;5090665;28;20525;-72
2023/01/06 12:28:38;;;;;;;2.30;2.10;;;13.30;99.90;;;;;;5081671;28;20485;-72
2023/01/06 12:31:10;;;;;;;3.40;2.00;;;13.70;99.90;;;;;;5086937;28;20492;-73
2023/01/06 12:33:44;;;;;;;3.23;2.47;;;13.90;99.90;;;;;;5082674;28;20578;-72
2023/01/06 12:36:18;;;;;;;3.50;2.13;;;14.00;99.90;;;;;;5077334;28;20869;-72
2023/01/06 12:38:52;;;;;;;3.33;3.03;;;14.00;99.90;;;;;;5077792;28;20485;-73
2023/01/06 12:41:28;;;;;;;4.47;3.03;;;14.30;99.90;;;;;;5080934;28;20471;-75
2023/01/06 12:44:16;;;;;;;1.90;1.80;;;15.10;99.90;;;;;;5083149;28;20555;-74
2023/01/06 12:46:52;;;;;;;3.00;2.70;;;15.00;99.90;;;;;;5083751;28;20466;-74
2023/01/06 12:49:28;;;;;;;3.10;2.27;;;14.60;99.90;;;;;;5082493;28;20464;-73
2023/01/06 12:52:01;;;;;;;6.40;2.10;;;14.30;99.90;;;;;;5080358;28;20832;-73
2023/01/06 12:54:33;;;;;;;3.70;1.90;;;14.50;99.90;;;;;;5088287;28;20490;-74
2023/01/06 12:57:22;;;;;;;3.30;2.00;;;14.30;99.90;;;;;;5090645;28;20794;-73
2023/01/06 13:00:02;;;;;;;2.53;2.33;;;13.90;99.90;;;;;;5086853;28;20552;-74
2023/01/06 13:02:47;;;;;;;5.90;1.60;;;13.70;99.90;;;;;;5087600;28;20532;-74
2023/01/06 13:05:34;;;;;;;1.90;1.70;;;13.50;99.90;;;;;;5093800;28;20873;-74